Time;durP1;ratioP1;P1;durP2;ratioP2;P2;SDS_P1;SDS_P2;PMS_P1;PMS_P2;Temp;Humidity;BMP_temperature;BMP_pressure;BME280_temperature;BME280_humidity;BME280_pressure;Samples;Min_cycle;Max_cycle;Signal;HPM_P1;HPM_P2
2022/05/24 00:01:29;;;;;;;1.45;0.57;;;18.20;99.90;;;;;;5014461;28;20062;-77
2022/05/24 00:03:56;;;;;;;2.60;0.50;;;18.20;99.90;;;;;;5016478;28;20096;-77
2022/05/24 00:06:25;;;;;;;2.25;0.77;;;18.10;99.90;;;;;;5016022;28;20034;-76
2022/05/24 00:08:51;;;;;;;1.33;0.50;;;17.90;99.90;;;;;;5010740;28;20094;-77
2022/05/24 00:11:17;;;;;;;1.88;0.70;;;17.80;99.90;;;;;;5014556;28;20057;-78
2022/05/24 00:13:43;;;;;;;0.82;0.50;;;17.70;99.90;;;;;;5016514;28;20041;-77
2022/05/24 00:16:09;;;;;;;1.05;0.80;;;17.70;99.90;;;;;;5015792;28;20100;-78
2022/05/24 00:18:34;;;;;;;2.78;0.88;;;17.60;99.90;;;;;;5013489;28;20452;-78
2022/05/24 00:21:02;;;;;;;1.02;0.80;;;17.50;99.90;;;;;;5016094;28;20018;-78
2022/05/24 00:23:30;;;;;;;2.92;0.77;;;17.50;99.90;;;;;;5015176;28;20025;-75
2022/05/24 00:25:59;;;;;;;0.85;0.60;;;17.40;99.90;;;;;;5013396;28;20029;-77
2022/05/24 00:28:26;;;;;;;1.30;0.63;;;17.30;99.90;;;;;;5017373;28;20494;-78
2022/05/24 00:30:53;;;;;;;4.25;0.60;;;17.20;99.90;;;;;;5015069;28;20029;-76
2022/05/24 00:33:21;;;;;;;3.75;0.70;;;17.00;99.90;;;;;;5014606;28;20387;-77
2022/05/24 00:35:47;;;;;;;1.13;0.60;;;17.90;99.90;;;;;;5015078;28;20034;-79
2022/05/24 00:38:14;;;;;;;1.90;0.73;;;;;;;;;;5014257;28;20044;-77
2022/05/24 00:40:46;;;;;;;1.58;0.80;;;16.60;99.90;;;;;;5015432;28;20438;-79
2022/05/24 00:43:20;;;;;;;2.33;0.73;;;16.50;99.90;;;;;;5012347;28;20030;-77
2022/05/24 00:45:51;;;;;;;0.73;0.73;;;16.50;99.90;;;;;;5016219;28;20036;-77
2022/05/24 00:48:38;;;;;;;0.50;0.50;;;16.50;99.90;;;;;;5012681;28;20025;-77
2022/05/24 00:51:09;;;;;;;2.55;0.70;;;16.40;99.90;;;;;;5014168;28;20495;-77
2022/05/24 00:53:40;;;;;;;0.73;0.60;;;16.30;99.90;;;;;;5010970;28;20030;-78
2022/05/24 00:56:35;;;;;;;2.00;0.60;;;16.30;99.90;;;;;;5019607;28;20029;-78
2022/05/24 00:59:05;;;;;;;1.95;0.98;;;16.20;99.90;;;;;;5016288;28;20033;-78
2022/05/24 01:01:47;;;;;;;0.77;0.70;;;16.20;99.90;;;;;;5015599;28;20021;-78
2022/05/24 01:04:17;;;;;;;0.70;0.52;;;16.20;99.90;;;;;;5013468;28;20042;-77
2022/05/24 01:06:43;;;;;;;0.90;0.70;;;16.20;99.90;;;;;;5015747;28;20418;-76
2022/05/24 01:09:27;;;;;;;0.77;0.75;;;16.10;99.90;;;;;;5014932;28;20022;-76
2022/05/24 01:11:58;;;;;;;0.70;0.70;;;16.20;99.90;;;;;;5016480;28;20050;-77
2022/05/24 01:14:25;;;;;;;1.95;1.00;;;16.20;99.90;;;;;;5014608;28;20125;-77
2022/05/24 01:16:52;;;;;;;0.75;0.75;;;16.10;99.90;;;;;;5017179;28;20040;-77
2022/05/24 01:19:29;;;;;;;0.95;0.73;;;16.10;99.90;;;;;;5015725;28;20026;-77
2022/05/24 01:22:02;;;;;;;2.67;1.10;;;16.10;99.90;;;;;;5016305;28;20026;-78
2022/05/24 01:24:38;;;;;;;1.33;0.80;;;16.00;99.90;;;;;;5013798;28;20034;-78
2022/05/24 01:27:05;;;;;;;1.40;1.20;;;16.00;99.90;;;;;;5016472;28;20076;-79
2022/05/24 01:29:31;;;;;;;1.02;0.90;;;16.00;99.90;;;;;;5015151;28;20680;-78
2022/05/24 01:37:29;;;;;;;1.92;1.02;;;16.00;99.90;;;;;;5035960;28;20398;-78
2022/05/24 01:39:57;;;;;;;1.88;0.88;;;15.90;99.90;;;;;;5035699;28;20083;-77
2022/05/24 01:42:24;;;;;;;1.02;0.93;;;15.90;99.90;;;;;;5033506;28;20029;-77
2022/05/24 01:45:04;;;;;;;0.80;0.80;;;15.90;99.90;;;;;;5014467;28;20038;-77
2022/05/24 01:47:32;;;;;;;1.73;0.90;;;15.90;99.90;;;;;;5029207;28;20026;-77
2022/05/24 01:50:02;;;;;;;2.38;1.00;;;15.90;99.90;;;;;;5032579;28;20031;-77
2022/05/24 01:52:35;;;;;;;0.93;0.80;;;15.90;99.90;;;;;;5035599;28;20057;-78
2022/05/24 01:55:15;;;;;;;2.25;0.70;;;15.90;99.90;;;;;;5016888;28;20464;-77
2022/05/24 01:57:46;;;;;;;1.95;0.60;;;15.90;99.90;;;;;;5015068;28;20463;-77
2022/05/24 02:00:14;;;;;;;;;;;15.90;99.90;;;;;;5034778;28;20029;-77
2022/05/24 02:02:41;;;;;;;0.80;0.80;;;15.80;99.90;;;;;;5035068;28;19959;-78
2022/05/24 02:05:07;;;;;;;0.93;0.73;;;15.80;99.90;;;;;;5033588;28;20075;-77
2022/05/24 02:07:33;;;;;;;0.90;0.90;;;15.70;99.90;;;;;;5032520;28;20061;-78
2022/05/24 02:09:59;;;;;;;1.35;0.90;;;15.70;99.90;;;;;;5035363;28;20072;-77
2022/05/24 02:12:38;;;;;;;1.98;0.93;;;15.70;99.90;;;;;;5033588;28;20406;-77
2022/05/24 02:15:17;;;;;;;1.38;1.02;;;15.60;99.90;;;;;;5021403;28;20088;-77
2022/05/24 02:18:13;;;;;;;2.22;1.10;;;15.60;99.90;;;;;;5015140;28;20065;-77
2022/05/24 02:20:45;;;;;;;0.88;0.70;;;15.50;99.90;;;;;;5013329;28;20109;-76
2022/05/24 02:23:15;;;;;;;1.48;0.73;;;15.50;99.90;;;;;;5020531;28;20502;-76
2022/05/24 02:25:49;;;;;;;2.22;0.77;;;15.50;99.90;;;;;;5034878;28;20025;-76
2022/05/24 02:28:17;;;;;;;0.50;0.50;;;15.50;99.90;;;;;;5034419;28;20113;-77
2022/05/24 02:30:53;;;;;;;0.95;0.80;;;15.40;99.90;;;;;;5029483;28;20144;-77
2022/05/24 02:33:20;;;;;;;1.02;0.90;;;15.40;99.90;;;;;;5013855;28;20061;-77
2022/05/24 02:35:47;;;;;;;1.08;0.73;;;15.40;99.90;;;;;;5014873;28;20038;-76
2022/05/24 02:38:12;;;;;;;0.70;0.70;;;15.40;99.90;;;;;;5014893;28;20037;-77
2022/05/24 02:43:23;;;;;;;0.70;0.70;;;15.30;99.90;;;;;;5028289;28;20120;-76
2022/05/24 02:45:49;;;;;;;0.95;0.80;;;15.30;99.90;;;;;;5032680;28;20053;-76
2022/05/24 02:48:15;;;;;;;1.65;0.80;;;15.30;99.90;;;;;;5034315;28;20033;-77
2022/05/24 02:50:40;;;;;;;0.50;0.50;;;15.30;99.90;;;;;;5025034;28;20510;-77
2022/05/24 02:53:07;;;;;;;1.25;0.80;;;15.30;99.90;;;;;;5014341;28;20034;-77
2022/05/24 02:55:32;;;;;;;4.50;0.70;;;15.20;99.90;;;;;;5013690;28;20034;-77
2022/05/24 02:57:58;;;;;;;0.60;0.60;;;15.20;99.90;;;;;;5020993;28;20029;-76
2022/05/24 03:00:25;;;;;;;0.95;0.70;;;15.20;99.90;;;;;;5049447;28;20018;-76
2022/05/24 03:02:51;;;;;;;0.70;0.70;;;15.20;99.90;;;;;;5035185;28;20022;-77
2022/05/24 03:05:18;;;;;;;6.50;0.63;;;15.20;99.90;;;;;;5036277;28;20018;-77
2022/05/24 03:10:29;;;;;;;0.80;0.80;;;15.10;99.90;;;;;;5012880;28;20069;-76
2022/05/24 03:15:40;;;;;;;1.25;0.90;;;15.10;99.90;;;;;;5012833;28;20045;-76
2022/05/24 03:18:07;;;;;;;1.55;0.88;;;15.10;99.90;;;;;;5017317;28;20467;-76
2022/05/24 03:20:33;;;;;;;4.18;1.02;;;15.00;99.90;;;;;;5017156;28;20025;-77
2022/05/24 03:22:59;;;;;;;1.63;1.00;;;15.00;99.90;;;;;;5013360;28;20135;-76
2022/05/24 03:25:24;;;;;;;1.25;0.82;;;15.00;99.90;;;;;;5012817;28;20022;-76
2022/05/24 03:27:50;;;;;;;0.80;0.80;;;15.00;99.90;;;;;;5033820;28;20041;-76
2022/05/24 03:30:18;;;;;;;1.10;0.90;;;15.00;99.90;;;;;;5020781;28;20033;-76
2022/05/24 03:32:43;;;;;;;0.82;0.70;;;15.00;99.90;;;;;;5014202;28;20405;-76
2022/05/24 03:35:12;;;;;;;0.68;0.68;;;15.00;99.90;;;;;;5013410;28;20026;-76
2022/05/24 03:37:38;;;;;;;0.73;0.73;;;15.00;99.90;;;;;;5011236;28;20022;-76
2022/05/24 03:40:05;;;;;;;1.80;0.80;;;15.00;99.90;;;;;;5014001;28;20439;-76
2022/05/24 03:42:31;;;;;;;1.42;0.95;;;15.00;99.90;;;;;;5013376;28;20108;-76
2022/05/24 03:44:57;;;;;;;1.17;0.90;;;15.00;99.90;;;;;;5011929;28;20053;-76
2022/05/24 03:47:22;;;;;;;1.02;0.98;;;15.00;99.90;;;;;;5019720;28;20113;-76
2022/05/24 03:49:48;;;;;;;1.05;0.80;;;15.10;99.90;;;;;;5033606;28;20033;-76
2022/05/24 03:52:14;;;;;;;0.70;0.70;;;15.10;99.90;;;;;;5033050;28;20120;-76
2022/05/24 03:54:39;;;;;;;1.55;1.08;;;15.10;99.90;;;;;;5016896;28;20037;-76
2022/05/24 03:59:49;;;;;;;2.13;0.70;;;15.10;99.90;;;;;;5012809;28;20033;-76
2022/05/24 04:02:15;;;;;;;0.90;0.90;;;15.20;99.90;;;;;;5015046;28;20109;-76
2022/05/24 04:04:41;;;;;;;1.73;1.02;;;15.20;99.90;;;;;;5017495;28;20105;-76
2022/05/24 04:07:07;;;;;;;3.50;1.00;;;15.20;99.90;;;;;;5013427;28;20110;-76
2022/05/24 04:09:33;;;;;;;2.58;1.00;;;15.20;99.90;;;;;;5012386;28;20089;-76
2022/05/24 04:11:59;;;;;;;0.95;0.95;;;15.20;99.90;;;;;;5018708;28;20053;-76
2022/05/24 04:14:25;;;;;;;1.60;1.00;;;15.20;99.90;;;;;;5033583;28;20088;-76
2022/05/24 04:16:52;;;;;;;1.73;0.85;;;15.30;99.90;;;;;;5032463;28;20068;-76
2022/05/24 04:19:17;;;;;;;1.00;0.93;;;15.30;99.90;;;;;;5031485;28;20021;-76
2022/05/24 04:21:43;;;;;;;2.65;1.00;;;15.30;99.90;;;;;;5012679;28;20051;-76
2022/05/24 04:24:09;;;;;;;0.80;0.80;;;15.30;99.90;;;;;;5013364;28;20487;-76
2022/05/24 04:26:34;;;;;;;2.22;0.90;;;15.30;99.90;;;;;;5013325;28;20032;-76
2022/05/24 04:29:00;;;;;;;1.27;0.80;;;15.30;99.90;;;;;;5031109;28;20025;-77
2022/05/24 04:31:25;;;;;;;1.52;1.10;;;15.40;99.90;;;;;;5037212;28;20032;-76
2022/05/24 04:33:51;;;;;;;0.98;0.88;;;15.40;99.90;;;;;;5035212;28;20037;-76
2022/05/24 04:36:17;;;;;;;1.65;1.08;;;15.50;99.90;;;;;;5026090;28;20036;-76
2022/05/24 04:38:42;;;;;;;0.90;0.90;;;15.50;99.90;;;;;;5017002;28;20029;-76
2022/05/24 04:43:53;;;;;;;1.13;0.88;;;15.60;99.90;;;;;;5014439;28;20164;-76
2022/05/24 04:46:18;;;;;;;1.95;0.80;;;15.70;99.90;;;;;;5035877;28;20029;-76
2022/05/24 04:48:44;;;;;;;2.92;0.80;;;15.80;99.90;;;;;;5036438;28;20106;-76
2022/05/24 04:51:10;;;;;;;3.15;0.95;;;15.90;99.90;;;;;;5035122;28;20108;-76
2022/05/24 04:53:36;;;;;;;1.75;0.90;;;15.90;99.90;;;;;;5027014;28;20025;-77
2022/05/24 04:56:01;;;;;;;1.85;0.80;;;16.00;99.90;;;;;;5016809;28;20460;-76
2022/05/24 04:58:27;;;;;;;0.77;0.77;;;16.00;99.90;;;;;;5015162;28;20030;-77
2022/05/24 05:00:53;;;;;;;0.98;0.73;;;16.10;99.90;;;;;;5016313;28;20109;-76
2022/05/24 05:03:19;;;;;;;1.23;0.70;;;16.10;99.90;;;;;;5026687;28;20035;-77
2022/05/24 05:05:47;;;;;;;0.80;0.57;;;16.10;99.90;;;;;;5031181;28;20025;-76
2022/05/24 05:08:13;;;;;;;3.05;1.20;;;16.10;99.90;;;;;;5036259;28;20083;-76
2022/05/24 05:10:39;;;;;;;3.35;1.00;;;16.20;99.90;;;;;;5035134;28;20055;-76
2022/05/24 05:13:05;;;;;;;1.88;0.90;;;16.30;99.90;;;;;;5034402;28;20455;-76
2022/05/24 05:15:34;;;;;;;1.95;0.95;;;16.40;99.90;;;;;;5023176;28;20159;-76
2022/05/24 05:18:09;;;;;;;3.22;1.25;;;16.50;99.90;;;;;;5036062;28;20425;-76
2022/05/24 05:20:39;;;;;;;1.20;1.10;;;16.60;99.90;;;;;;5034742;28;20505;-76
2022/05/24 05:23:10;;;;;;;7.22;1.20;;;16.70;99.90;;;;;;5034232;28;20141;-77
2022/05/24 05:25:37;;;;;;;2.78;0.95;;;16.60;99.90;;;;;;5033744;28;20033;-77
2022/05/24 05:28:02;;;;;;;1.65;1.02;;;16.70;99.90;;;;;;5034860;28;20022;-77
2022/05/24 05:33:14;;;;;;;1.48;1.10;;;16.70;99.90;;;;;;5033915;28;20092;-78
2022/05/24 05:35:43;;;;;;;4.35;1.10;;;16.80;99.90;;;;;;5033729;28;20037;-77
2022/05/24 05:38:08;;;;;;;4.65;1.20;;;16.90;99.90;;;;;;5013444;28;20157;-81
2022/05/24 05:40:34;;;;;;;2.03;1.10;;;17.00;99.90;;;;;;5013632;28;20065;-81
2022/05/24 05:42:59;;;;;;;5.18;1.40;;;17.10;99.90;;;;;;5014745;28;20100;-87
2022/05/24 05:45:25;;;;;;;3.80;1.15;;;17.20;99.90;;;;;;5013960;28;20034;-82
2022/05/24 05:47:53;;;;;;;3.22;0.88;;;17.30;99.90;;;;;;5014733;28;20021;-85
2022/05/24 05:50:20;;;;;;;2.85;1.10;;;17.50;99.90;;;;;;5029970;28;20029;-89
2022/05/24 05:52:46;;;;;;;7.90;1.10;;;17.60;99.90;;;;;;5013811;28;20072;-86
2022/05/24 05:55:12;;;;;;;5.93;1.00;;;17.70;99.90;;;;;;5013304;28;20448;-74
2022/05/24 05:57:38;;;;;;;1.80;0.80;;;17.80;99.90;;;;;;5009315;28;20029;-75
2022/05/24 06:00:06;;;;;;;3.33;1.00;;;17.90;99.90;;;;;;5009978;28;20125;-76
2022/05/24 06:02:32;;;;;;;1.30;0.80;;;17.90;99.90;;;;;;5012741;28;20113;-75
2022/05/24 06:04:58;;;;;;;1.77;0.90;;;17.90;99.90;;;;;;5012614;28;20112;-75
2022/05/24 06:07:23;;;;;;;2.05;0.65;;;17.90;99.90;;;;;;5020876;28;20031;-74
2022/05/24 06:09:50;;;;;;;3.25;1.05;;;18.00;99.90;;;;;;5032620;28;20462;-76
2022/05/24 06:12:15;;;;;;;1.83;0.88;;;18.10;99.90;;;;;;5032868;28;20046;-76
2022/05/24 06:14:41;;;;;;;6.90;1.00;;;18.20;99.90;;;;;;5027718;28;20033;-76
2022/05/24 06:17:07;;;;;;;1.33;0.85;;;18.30;99.90;;;;;;5010664;28;20041;-77
2022/05/24 06:19:33;;;;;;;3.80;1.23;;;18.50;99.90;;;;;;5014284;28;20025;-76
2022/05/24 06:21:58;;;;;;;2.75;0.88;;;18.60;99.90;;;;;;5012909;28;20036;-77
2022/05/24 06:24:24;;;;;;;4.13;0.70;;;18.70;99.90;;;;;;5012092;28;20036;-74
2022/05/24 06:26:50;;;;;;;1.98;0.90;;;18.80;99.90;;;;;;5013212;28;20112;-76
2022/05/24 06:29:17;;;;;;;1.95;1.05;;;18.80;99.90;;;;;;5013106;28;20030;-77
2022/05/24 06:31:44;;;;;;;1.65;0.90;;;18.80;99.90;;;;;;5031594;28;20565;-78
2022/05/24 06:34:13;;;;;;;3.47;1.00;;;18.90;99.90;;;;;;5023428;28;20026;-77
2022/05/24 06:36:39;;;;;;;2.53;0.77;;;18.90;99.90;;;;;;5026296;28;20041;-77
2022/05/24 06:39:05;;;;;;;1.15;0.63;;;18.90;99.90;;;;;;5032422;28;20037;-82
2022/05/24 06:41:31;;;;;;;4.20;1.33;;;18.90;99.90;;;;;;5031749;28;20037;-82
2022/05/24 06:43:57;;;;;;;1.55;0.75;;;18.90;99.90;;;;;;5032794;28;20497;-82
2022/05/24 06:46:23;;;;;;;2.22;0.88;;;18.90;99.90;;;;;;5033079;28;20532;-81
2022/05/24 06:48:50;;;;;;;5.00;0.95;;;18.90;99.90;;;;;;5032038;28;20512;-88
2022/05/24 06:51:20;;;;;;;3.10;1.00;;;18.90;99.90;;;;;;5031911;28;20025;-84
2022/05/24 06:53:48;;;;;;;7.18;1.00;;;19.00;99.90;;;;;;5024228;28;20064;-84
2022/05/24 06:56:14;;;;;;;5.80;1.13;;;18.90;99.90;;;;;;5014023;28;20112;-83
2022/05/24 06:58:40;;;;;;;2.45;0.80;;;18.90;99.90;;;;;;5012654;28;20018;-84
2022/05/24 07:03:52;;;;;;;6.47;0.95;;;18.70;99.90;;;;;;5032542;28;20043;-83
2022/05/24 07:06:18;;;;;;;2.28;1.00;;;18.60;99.90;;;;;;5032211;28;20463;-83
2022/05/24 07:08:45;;;;;;;4.10;1.05;;;18.60;99.90;;;;;;5032067;28;20030;-83
2022/05/24 07:11:12;;;;;;;6.50;0.80;;;18.60;99.90;;;;;;5032700;28;20049;-84
2022/05/24 07:13:39;;;;;;;1.60;0.55;;;18.60;99.90;;;;;;5033934;28;20414;-78
2022/05/24 07:16:09;;;;;;;4.90;0.60;;;18.00;99.90;;;;;;5031508;28;20030;-75
2022/05/24 07:18:36;;;;;;;3.40;0.73;;;17.20;99.90;;;;;;5030946;28;20079;-73
2022/05/24 07:21:03;;;;;;;1.80;0.43;;;16.00;99.90;;;;;;5026611;28;20406;-73
2022/05/24 07:23:29;;;;;;;2.25;0.70;;;;;;;;;;5024954;28;20025;-74
2022/05/24 07:26:06;;;;;;;5.05;0.55;;;14.30;99.90;;;;;;5011568;28;20029;-72
2022/05/24 07:28:32;;;;;;;5.43;0.80;;;13.80;99.90;;;;;;5010943;28;20032;-72
2022/05/24 07:30:57;;;;;;;4.65;0.57;;;13.30;99.90;;;;;;5011671;28;20108;-72
2022/05/24 07:33:23;;;;;;;1.70;0.60;;;13.00;99.90;;;;;;5011268;28;20467;-72
2022/05/24 07:35:48;;;;;;;1.58;0.65;;;12.80;99.90;;;;;;5018204;28;20072;-72
2022/05/24 07:38:14;;;;;;;1.38;0.80;;;12.70;99.90;;;;;;5031265;28;20033;-72
2022/05/24 07:46:12;;;;;;;3.50;0.95;;;12.60;99.90;;;;;;5031264;28;20072;-72
2022/05/24 07:48:39;;;;;;;2.60;0.75;;;12.70;99.90;;;;;;5030284;28;20164;-70
2022/05/24 07:51:06;;;;;;;8.63;0.82;;;12.80;99.90;;;;;;5024486;28;20069;-80
2022/05/24 07:53:32;;;;;;;0.82;0.50;;;12.90;99.90;;;;;;5010058;28;20096;-77
2022/05/24 07:55:59;;;;;;;5.93;0.82;;;13.00;99.90;;;;;;5008978;28;20152;-74
2022/05/24 07:58:26;;;;;;;2.67;0.82;;;13.10;99.90;;;;;;5011313;28;20048;-78
2022/05/24 08:00:55;;;;;;;3.80;0.90;;;13.20;99.90;;;;;;5011441;28;20102;-77
2022/05/24 08:03:21;;;;;;;3.42;0.60;;;13.30;99.90;;;;;;5015578;28;20360;-75
2022/05/24 08:05:47;;;;;;;5.63;0.88;;;13.50;99.90;;;;;;5022521;28;20036;-78
2022/05/24 08:08:14;;;;;;;1.55;0.52;;;13.70;99.90;;;;;;5035782;28;20156;-78
2022/05/24 08:10:41;;;;;;;2.85;0.93;;;13.90;99.90;;;;;;5034135;28;20053;-74
2022/05/24 08:13:13;;;;;;;2.95;0.60;;;14.10;99.90;;;;;;5022652;28;20037;-77
2022/05/24 08:15:38;;;;;;;0.73;0.35;;;14.20;99.90;;;;;;5012311;28;20036;-75
2022/05/24 08:18:05;;;;;;;1.33;0.57;;;14.40;99.90;;;;;;5015030;28;20041;-74
2022/05/24 08:20:33;;;;;;;6.45;0.75;;;14.60;99.90;;;;;;5014334;28;20030;-75
2022/05/24 08:22:59;;;;;;;2.58;0.57;;;14.80;99.90;;;;;;5015131;28;20069;-75
2022/05/24 08:25:27;;;;;;;0.70;0.40;;;14.90;99.90;;;;;;5015810;28;20030;-75
2022/05/24 08:27:53;;;;;;;1.35;0.40;;;15.10;99.90;;;;;;5015081;28;20084;-74
2022/05/24 08:30:19;;;;;;;1.85;0.60;;;15.10;99.90;;;;;;5015895;28;20026;-75
2022/05/24 08:32:48;;;;;;;2.60;0.47;;;15.20;99.90;;;;;;5014898;28;20084;-74
2022/05/24 08:35:17;;;;;;;2.40;0.50;;;15.20;99.90;;;;;;5015283;28;20038;-80
2022/05/24 08:37:44;;;;;;;2.60;0.52;;;15.30;99.90;;;;;;5013645;28;20038;-74
2022/05/24 08:40:13;;;;;;;3.40;0.82;;;15.30;99.90;;;;;;5015013;28;20030;-73
2022/05/24 08:43:13;;;;;;;3.35;0.40;;;15.40;99.90;;;;;;5014410;28;20345;-76
2022/05/24 08:48:41;;;;;;;1.75;0.50;;;15.60;99.90;;;;;;5015066;28;20461;-74
2022/05/24 08:51:27;;;;;;;1.40;0.30;;;15.90;99.90;;;;;;5034359;28;20057;-72
2022/05/24 08:53:56;;;;;;;0.63;0.52;;;16.00;99.90;;;;;;5025677;28;20033;-76
2022/05/24 08:56:30;;;;;;;1.00;0.55;;;16.20;99.90;;;;;;5014404;28;20092;-75
2022/05/24 08:59:03;;;;;;;1.02;0.47;;;16.40;99.90;;;;;;5014845;28;20030;-76
2022/05/24 09:01:32;;;;;;;0.55;0.40;;;16.50;99.90;;;;;;5014686;28;20029;-74
2022/05/24 09:04:08;;;;;;;1.70;0.20;;;16.60;99.90;;;;;;5014623;28;20026;-74
2022/05/24 09:06:48;;;;;;;1.05;0.50;;;16.80;99.90;;;;;;5013528;28;20037;-75
2022/05/24 09:09:42;;;;;;;0.35;0.30;;;16.90;99.90;;;;;;5014534;28;20049;-75
2022/05/24 09:12:33;;;;;;;3.05;0.50;;;17.00;99.90;;;;;;5014226;28;20125;-75
2022/05/24 09:15:35;;;;;;;0.88;0.50;;;17.00;99.90;;;;;;5014583;28;20026;-76
2022/05/24 09:18:26;;;;;;;2.15;0.40;;;17.20;99.90;;;;;;5014823;28;20072;-74
2022/05/24 09:20:52;;;;;;;3.15;0.60;;;17.40;99.90;;;;;;5013012;28;20109;-75
2022/05/24 09:23:34;;;;;;;2.03;0.32;;;17.60;99.90;;;;;;5014314;28;20026;-77
2022/05/24 09:26:08;;;;;;;2.78;0.45;;;17.70;99.90;;;;;;5013699;28;20544;-76
2022/05/24 09:28:53;;;;;;;4.35;0.60;;;17.90;99.90;;;;;;5013578;28;20541;-76
2022/05/24 09:31:25;;;;;;;4.00;0.50;;;18.00;99.90;;;;;;5014128;28;20026;-76
2022/05/24 09:34:04;;;;;;;3.47;0.50;;;18.10;99.90;;;;;;5013212;28;20026;-76
2022/05/24 09:36:55;;;;;;;0.85;0.43;;;18.00;99.90;;;;;;5013731;28;20132;-75
2022/05/24 09:39:25;;;;;;;1.10;0.20;;;18.10;99.90;;;;;;5014374;28;20467;-77
2022/05/24 09:42:00;;;;;;;4.47;0.40;;;18.00;99.90;;;;;;5012921;28;20025;-75
2022/05/24 09:44:28;;;;;;;1.95;0.40;;;18.00;99.90;;;;;;5014212;28;20037;-77
2022/05/24 09:46:55;;;;;;;0.65;0.30;;;18.10;99.90;;;;;;5013197;28;20033;-78
2022/05/24 09:49:32;;;;;;;0.30;0.30;;;18.20;99.90;;;;;;5013571;28;20022;-75
2022/05/24 09:52:11;;;;;;;1.75;0.40;;;18.30;99.90;;;;;;5013208;28;20026;-75
2022/05/24 09:54:54;;;;;;;1.67;0.60;;;18.40;99.90;;;;;;5012572;28;20117;-74
2022/05/24 09:57:28;;;;;;;4.88;0.47;;;18.40;99.60;;;;;;5013864;28;20056;-75
2022/05/24 10:00:15;;;;;;;0.50;0.20;;;18.30;98.80;;;;;;5013089;28;20022;-74
2022/05/24 10:02:42;;;;;;;0.63;0.25;;;18.20;99.20;;;;;;5013300;28;20471;-76
2022/05/24 10:05:22;;;;;;;0.52;0.30;;;18.00;99.10;;;;;;5013754;28;20021;-77
2022/05/24 10:08:00;;;;;;;0.68;0.43;;;17.90;98.80;;;;;;5012683;28;20493;-75
2022/05/24 10:10:39;;;;;;;2.38;0.30;;;18.00;99.50;;;;;;5013219;28;20475;-75
2022/05/24 10:13:16;;;;;;;2.35;0.50;;;18.50;97.00;;;;;;5013538;28;20033;-76
2022/05/24 10:16:09;;;;;;;4.38;1.05;;;18.90;96.70;;;;;;5012810;28;20037;-76
2022/05/24 10:18:49;;;;;;;0.90;0.35;;;19.30;95.70;;;;;;5012735;28;20076;-73
2022/05/24 10:21:31;;;;;;;;;;;19.70;94.00;;;;;;4994217;28;20022;-72
2022/05/24 10:24:23;;;;;;;0.50;0.40;;;19.80;93.80;;;;;;4992906;28;19910;-73
2022/05/24 10:26:50;;;;;;;0.68;0.25;;;;;;;;;;4992958;28;20034;-77
2022/05/24 10:29:49;;;;;;;2.30;0.32;;;20.20;91.00;;;;;;4993705;28;20023;-76
2022/05/24 10:38:28;;;;;;;1.17;0.45;;;19.90;88.60;;;;;;4993142;28;20103;-76
2022/05/24 10:41:07;;;;;;;4.63;0.40;;;20.00;90.50;;;;;;4992424;28;20039;-74
2022/05/24 10:43:48;;;;;;;0.50;0.28;;;20.30;88.00;;;;;;4993396;28;20034;-73
2022/05/24 10:46:17;;;;;;;1.80;0.40;;;20.30;86.80;;;;;;4993500;28;20034;-75
2022/05/24 10:48:48;;;;;;;0.68;0.50;;;20.30;88.20;;;;;;4992639;28;20088;-74
2022/05/24 10:51:23;;;;;;;0.77;0.52;;;20.40;84.90;;;;;;5031143;28;20533;-75
2022/05/24 10:54:14;;;;;;;3.60;0.50;;;20.30;82.90;;;;;;5038792;28;20048;-74
2022/05/24 10:56:43;;;;;;;2.38;0.80;;;20.20;84.20;;;;;;5012413;28;20022;-74
2022/05/24 10:59:37;;;;;;;2.20;0.67;;;20.10;84.60;;;;;;5012703;28;20112;-75
2022/05/24 11:02:38;;;;;;;1.25;0.30;;;20.00;82.60;;;;;;5012837;28;20022;-75
2022/05/24 11:05:22;;;;;;;0.45;0.32;;;19.80;83.40;;;;;;5012416;28;20056;-75
2022/05/24 11:08:09;;;;;;;0.73;0.32;;;19.80;85.80;;;;;;5011874;28;20030;-76
2022/05/24 11:10:42;;;;;;;0.35;0.35;;;20.00;86.00;;;;;;5012195;28;20057;-76
2022/05/24 11:13:15;;;;;;;1.83;0.20;;;20.10;83.40;;;;;;5012545;28;20030;-75
2022/05/24 11:15:51;;;;;;;2.80;0.40;;;20.20;81.50;;;;;;5011819;28;20053;-74
2022/05/24 11:18:23;;;;;;;1.55;0.70;;;20.30;83.90;;;;;;5012275;28;20506;-75
2022/05/24 11:21:06;;;;;;;1.98;0.52;;;20.60;82.30;;;;;;5011710;28;20045;-75
2022/05/24 11:23:45;;;;;;;1.95;0.38;;;20.60;80.80;;;;;;5012230;28;20030;-75
2022/05/24 11:26:16;;;;;;;1.25;0.40;;;20.60;80.30;;;;;;5012239;28;20022;-74
2022/05/24 11:28:49;;;;;;;2.20;0.55;;;20.50;80.20;;;;;;5009600;28;20100;-75
2022/05/24 11:31:27;;;;;;;2.20;0.32;;;20.50;80.30;;;;;;5011805;28;20105;-77
2022/05/24 11:33:54;;;;;;;0.95;0.63;;;20.40;81.50;;;;;;5028592;28;20375;-78
2022/05/24 11:36:32;;;;;;;0.40;0.40;;;20.20;81.70;;;;;;5030616;28;20072;-75
2022/05/24 11:39:07;;;;;;;2.15;0.40;;;20.10;82.50;;;;;;5029788;28;20029;-75
2022/05/24 11:41:33;;;;;;;1.35;0.40;;;20.30;81.40;;;;;;5030943;28;20037;-75
2022/05/24 11:44:07;;;;;;;2.53;0.45;;;20.50;81.80;;;;;;5029631;28;20026;-75
2022/05/24 11:46:33;;;;;;;1.52;0.50;;;20.80;80.30;;;;;;5030921;28;20495;-75
2022/05/24 11:49:19;;;;;;;4.53;0.25;;;20.80;79.50;;;;;;5030161;28;20033;-75
2022/05/24 11:51:50;;;;;;;2.33;0.40;;;20.70;80.00;;;;;;5018960;28;20456;-75
2022/05/24 11:54:16;;;;;;;2.22;0.70;;;20.50;80.00;;;;;;5018667;28;20390;-75
2022/05/24 11:56:52;;;;;;;0.50;0.50;;;20.30;81.10;;;;;;5010055;28;20038;-75
2022/05/24 11:59:41;;;;;;;1.58;0.40;;;20.10;82.30;;;;;;5017789;28;20044;-77
2022/05/24 12:08:29;;;;;;;1.15;0.40;;;20.50;80.30;;;;;;5030696;28;20386;-79
2022/05/24 12:11:04;;;;;;;0.30;0.30;;;20.50;81.60;;;;;;5015585;28;20054;-81
2022/05/24 12:13:38;;;;;;;2.45;0.50;;;20.50;82.00;;;;;;5011052;28;20121;-81
2022/05/24 12:16:31;;;;;;;1.25;0.60;;;20.50;80.10;;;;;;5010915;28;20081;-83
2022/05/24 12:19:00;;;;;;;2.35;0.55;;;20.40;79.50;;;;;;5010320;28;20179;-80
2022/05/24 12:21:52;;;;;;;3.72;0.63;;;20.50;79.80;;;;;;5011207;28;20041;-77
2022/05/24 12:24:33;;;;;;;1.65;0.70;;;20.60;79.60;;;;;;5010219;28;20492;-80
2022/05/24 12:27:19;;;;;;;2.03;0.50;;;20.80;77.60;;;;;;5010520;28;20022;-80
2022/05/24 12:29:52;;;;;;;5.55;0.50;;;20.90;78.10;;;;;;5010646;28;20352;-79
2022/05/24 12:32:20;;;;;;;1.17;0.40;;;20.90;78.00;;;;;;5025885;28;20022;-77
2022/05/24 12:34:46;;;;;;;1.05;0.60;;;21.00;78.00;;;;;;5020880;28;20412;-80
2022/05/24 12:37:19;;;;;;;2.22;0.60;;;21.00;78.10;;;;;;5011107;28;20356;-79
2022/05/24 12:40:17;;;;;;;2.45;0.60;;;21.10;77.30;;;;;;5011788;28;20381;-80
2022/05/24 12:43:16;;;;;;;0.90;0.68;;;21.60;77.30;;;;;;5029417;28;20088;-79
2022/05/24 12:45:45;;;;;;;0.85;0.40;;;22.50;73.50;;;;;;5028286;28;20038;-77
2022/05/24 12:48:36;;;;;;;2.95;0.73;;;22.90;71.20;;;;;;5031696;28;20426;-77
2022/05/24 12:51:08;;;;;;;3.00;0.45;;;22.90;69.40;;;;;;5033870;28;20026;-79
2022/05/24 12:53:35;;;;;;;0.47;0.40;;;22.80;69.70;;;;;;5016546;28;20033;-78
2022/05/24 12:56:05;;;;;;;0.52;0.43;;;23.10;68.90;;;;;;5013916;28;20490;-81
2022/05/24 12:58:36;;;;;;;2.17;0.60;;;23.60;67.40;;;;;;5015515;28;20026;-79
2022/05/24 13:01:10;;;;;;;1.13;0.40;;;24.00;66.30;;;;;;5033253;28;20382;-79
2022/05/24 13:03:36;;;;;;;1.65;0.57;;;24.40;64.50;;;;;;5033460;28;20036;-76
2022/05/24 13:06:02;;;;;;;1.67;0.60;;;24.60;63.30;;;;;;5033385;28;20021;-78
2022/05/24 13:08:28;;;;;;;1.17;0.50;;;24.40;62.60;;;;;;5033815;28;20036;-78
2022/05/24 13:10:55;;;;;;;1.55;0.40;;;24.00;62.90;;;;;;5032324;28;20115;-77
2022/05/24 13:13:23;;;;;;;0.88;0.55;;;23.50;63.80;;;;;;5033717;28;20116;-78
2022/05/24 13:15:58;;;;;;;1.45;0.70;;;23.00;63.60;;;;;;4994930;28;20129;-77
2022/05/24 13:18:32;;;;;;;3.58;0.60;;;22.50;65.40;;;;;;4994464;28;20041;-79
2022/05/24 13:21:01;;;;;;;1.20;0.55;;;22.00;67.40;;;;;;5016666;28;20025;-78
2022/05/24 13:23:38;;;;;;;2.17;0.80;;;21.50;69.30;;;;;;5033789;28;20026;-78
2022/05/24 13:26:03;;;;;;;3.35;0.70;;;21.20;70.90;;;;;;5033103;28;20041;-78
2022/05/24 13:28:48;;;;;;;2.60;0.60;;;20.90;71.80;;;;;;5023921;28;20022;-79
2022/05/24 13:34:16;;;;;;;1.25;0.40;;;20.70;72.60;;;;;;5019597;28;20040;-76
2022/05/24 13:36:45;;;;;;;0.95;0.55;;;20.70;73.40;;;;;;5020634;28;20080;-76
2022/05/24 13:39:17;;;;;;;1.27;0.60;;;21.00;73.20;;;;;;5014355;28;20080;-76
2022/05/24 13:41:54;;;;;;;1.83;0.68;;;21.70;71.70;;;;;;5013906;28;20046;-77
2022/05/24 13:44:31;;;;;;;1.80;0.63;;;22.50;69.50;;;;;;5013299;28;20030;-74
2022/05/24 13:47:01;;;;;;;1.52;0.50;;;22.80;69.00;;;;;;5012700;28;20024;-77
2022/05/24 13:49:32;;;;;;;3.13;0.90;;;23.00;70.10;;;;;;5013442;28;20430;-77
2022/05/24 13:52:25;;;;;;;1.20;0.55;;;23.20;66.30;;;;;;5012375;28;20026;-76
2022/05/24 13:55:09;;;;;;;1.30;0.60;;;23.30;65.80;;;;;;5012236;28;20368;-77
2022/05/24 13:57:48;;;;;;;1.42;0.55;;;23.10;64.90;;;;;;5012886;28;20060;-77